Time;durP1;ratioP1;P1;durP2;ratioP2;P2;SDS_P1;SDS_P2;PMS_P1;PMS_P2;Temp;Humidity;BMP_temperature;BMP_pressure;BME280_temperature;BME280_humidity;BME280_pressure;Samples;Min_cycle;Max_cycle;Signal;HPM_P1;HPM_P2
2021/11/20 00:00:19;;;;;;;4.43;2.25;;;12.40;94.70;;;;;;5096025;28;20127;-75
2021/11/20 00:02:46;;;;;;;6.32;2.80;;;12.40;94.40;;;;;;5091117;28;20031;-75
2021/11/20 00:05:14;;;;;;;4.50;2.10;;;12.40;94.40;;;;;;5091918;28;20475;-76
2021/11/20 00:07:40;;;;;;;10.95;2.53;;;12.40;94.40;;;;;;5089452;28;20020;-75
2021/11/20 00:10:09;;;;;;;2.17;1.48;;;12.40;94.50;;;;;;5092196;28;20032;-75
2021/11/20 00:12:36;;;;;;;4.75;1.88;;;12.40;94.40;;;;;;5090921;28;20043;-75
2021/11/20 00:15:03;;;;;;;8.52;1.60;;;12.30;94.30;;;;;;5091026;28;20506;-76
2021/11/20 00:17:29;;;;;;;5.03;2.25;;;12.40;94.40;;;;;;5091417;28;20107;-75
2021/11/20 00:19:55;;;;;;;3.80;1.45;;;12.40;94.30;;;;;;5090967;28;20395;-76
2021/11/20 00:22:32;;;;;;;8.55;2.90;;;12.40;94.30;;;;;;5090143;28;20043;-75
2021/11/20 00:25:05;;;;;;;3.63;2.58;;;12.40;94.30;;;;;;5091435;28;20024;-76
2021/11/20 00:27:34;;;;;;;5.00;1.95;;;12.40;94.30;;;;;;5089331;28;20740;-76
2021/11/20 00:30:21;;;;;;;7.63;2.30;;;12.30;94.30;;;;;;5090898;28;20028;-76
2021/11/20 00:32:51;;;;;;;5.88;2.80;;;12.40;94.30;;;;;;5070847;28;20027;-76
2021/11/20 00:35:22;;;;;;;8.02;1.80;;;12.40;94.30;;;;;;5072553;28;20491;-76
2021/11/20 00:37:49;;;;;;;2.08;1.83;;;12.40;94.30;;;;;;5090674;28;20024;-76
2021/11/20 00:40:29;;;;;;;2.80;2.00;;;12.30;94.30;;;;;;5073081;28;20035;-76
2021/11/20 00:42:55;;;;;;;10.05;2.42;;;12.30;94.40;;;;;;5090350;28;20032;-76
2021/11/20 00:45:21;;;;;;;3.53;1.88;;;12.30;94.40;;;;;;5072912;28;20036;-76
2021/11/20 00:47:47;;;;;;;7.25;2.15;;;12.30;94.50;;;;;;5090791;28;20024;-76
2021/11/20 00:50:15;;;;;;;2.45;1.63;;;12.30;94.50;;;;;;5091044;28;20103;-76
2021/11/20 00:52:42;;;;;;;13.20;2.80;;;12.20;94.50;;;;;;5085919;28;20038;-76
2021/11/20 00:55:13;;;;;;;4.95;2.95;;;12.20;94.50;;;;;;5089403;28;20471;-75
2021/11/20 00:57:39;;;;;;;4.63;2.45;;;12.30;94.60;;;;;;5090281;28;20028;-76
2021/11/20 01:00:08;;;;;;;6.32;2.33;;;12.30;94.60;;;;;;5096362;28;20032;-76
2021/11/20 01:02:34;;;;;;;10.77;3.42;;;12.30;94.60;;;;;;5090131;28;20494;-76
2021/11/20 01:05:00;;;;;;;4.90;2.47;;;12.30;94.50;;;;;;5073270;28;20028;-76
2021/11/20 01:07:26;;;;;;;5.47;2.92;;;12.30;94.50;;;;;;5071708;28;20710;-76
2021/11/20 01:09:52;;;;;;;10.35;3.60;;;12.30;94.60;;;;;;5072324;28;20047;-75
2021/11/20 01:12:25;;;;;;;7.82;3.15;;;12.20;94.60;;;;;;5072608;28;20488;-75
2021/11/20 01:14:52;;;;;;;5.80;2.38;;;12.20;94.60;;;;;;5091243;28;20506;-76
2021/11/20 01:17:20;;;;;;;5.15;3.17;;;12.20;94.70;;;;;;5071908;28;20028;-74
2021/11/20 01:19:48;;;;;;;7.95;4.07;;;12.20;94.80;;;;;;5071710;28;20043;-76
2021/11/20 01:22:39;;;;;;;6.85;3.05;;;12.20;94.80;;;;;;5072530;28;20031;-76
2021/11/20 01:25:28;;;;;;;4.60;2.80;;;12.20;94.80;;;;;;5071100;28;20089;-76
2021/11/20 01:28:07;;;;;;;10.40;3.50;;;12.20;94.90;;;;;;5072049;28;20024;-75
2021/11/20 01:30:48;;;;;;;4.55;3.00;;;12.20;94.90;;;;;;5084099;28;20093;-76
2021/11/20 01:33:20;;;;;;;15.05;4.28;;;12.20;94.90;;;;;;5072623;28;20032;-76
2021/11/20 01:35:47;;;;;;;6.00;2.35;;;12.20;94.90;;;;;;5072808;28;20035;-75
2021/11/20 01:38:17;;;;;;;6.10;2.67;;;12.20;94.90;;;;;;5070819;28;20024;-76
2021/11/20 01:40:46;;;;;;;10.73;3.38;;;12.20;94.90;;;;;;5065185;28;20130;-76
2021/11/20 01:43:21;;;;;;;5.50;2.38;;;12.20;94.90;;;;;;5073708;28;20569;-76
2021/11/20 01:45:59;;;;;;;13.55;3.33;;;12.20;94.90;;;;;;5075136;28;20407;-76
2021/11/20 01:49:00;;;;;;;4.40;2.03;;;12.20;95.00;;;;;;5075513;28;20114;-76
2021/11/20 01:51:33;;;;;;;5.35;2.60;;;12.20;95.00;;;;;;5071915;28;20142;-76
2021/11/20 01:54:09;;;;;;;7.93;2.40;;;12.20;95.00;;;;;;5075511;28;20028;-75
2021/11/20 01:56:44;;;;;;;7.78;2.60;;;12.20;95.00;;;;;;5074885;28;20051;-75
2021/11/20 01:59:28;;;;;;;5.15;2.58;;;12.20;95.00;;;;;;5091501;28;20036;-76
2021/11/20 02:02:44;;;;;;;4.10;2.53;;;12.20;95.10;;;;;;5092380;28;20102;-75
2021/11/20 02:05:56;;;;;;;9.18;3.70;;;12.20;95.00;;;;;;5074332;28;20074;-75
2021/11/20 02:08:51;;;;;;;8.35;3.78;;;12.20;95.10;;;;;;5075709;28;20029;-76
2021/11/20 02:11:24;;;;;;;11.95;3.85;;;12.20;95.20;;;;;;5083649;28;20016;-75
2021/11/20 02:13:50;;;;;;;5.35;3.20;;;12.20;95.30;;;;;;5074416;28;20028;-76
2021/11/20 02:16:19;;;;;;;5.70;2.70;;;12.20;95.30;;;;;;5075643;28;20024;-75
2021/11/20 02:18:49;;;;;;;10.32;3.03;;;12.10;95.30;;;;;;5087079;28;20047;-76
2021/11/20 02:21:59;;;;;;;9.73;4.53;;;12.20;95.30;;;;;;5075041;28;20495;-75
2021/11/20 02:24:26;;;;;;;12.40;2.45;;;12.20;95.30;;;;;;5053336;28;20041;-75
2021/11/20 02:27:20;;;;;;;7.30;2.67;;;12.30;95.20;;;;;;5091686;28;20035;-76
2021/11/20 02:29:50;;;;;;;6.15;2.70;;;12.20;95.10;;;;;;5075518;28;20570;-76
2021/11/20 02:32:40;;;;;;;9.70;3.90;;;12.30;95.20;;;;;;5074588;28;20061;-76
2021/11/20 02:35:23;;;;;;;9.18;4.38;;;12.30;95.10;;;;;;5068628;28;20479;-76
2021/11/20 02:37:49;;;;;;;4.78;2.47;;;12.30;95.10;;;;;;5074496;28;20016;-76
2021/11/20 02:40:16;;;;;;;9.27;3.38;;;12.30;95.10;;;;;;5074781;28;20110;-75
2021/11/20 02:42:43;;;;;;;12.23;4.50;;;12.30;95.10;;;;;;5073539;28;20138;-75
2021/11/20 02:45:34;;;;;;;9.07;3.92;;;12.30;95.20;;;;;;5091698;28;20571;-76
2021/11/20 02:48:00;;;;;;;7.05;3.22;;;12.30;95.10;;;;;;5071686;28;20040;-76
2021/11/20 02:51:01;;;;;;;4.00;2.67;;;12.30;95.10;;;;;;5074939;28;20031;-76
2021/11/20 02:53:30;;;;;;;5.20;2.60;;;12.30;95.20;;;;;;5061785;28;20043;-76
2021/11/20 02:55:56;;;;;;;6.97;2.95;;;12.30;95.20;;;;;;5072977;28;20116;-75
2021/11/20 02:58:29;;;;;;;6.57;2.85;;;12.30;95.20;;;;;;5074715;28;20078;-75
2021/11/20 03:01:08;;;;;;;2.50;2.13;;;12.30;95.20;;;;;;5094732;28;20040;-76
2021/11/20 03:03:35;;;;;;;6.75;2.72;;;12.30;95.20;;;;;;5073611;28;20475;-76
2021/11/20 03:06:00;;;;;;;5.97;3.60;;;12.30;95.20;;;;;;5074006;28;20235;-76
2021/11/20 03:08:26;;;;;;;5.93;2.58;;;12.30;95.30;;;;;;5073813;28;20059;-76
2021/11/20 03:10:58;;;;;;;5.35;3.17;;;12.30;95.30;;;;;;5074022;28;20445;-75
2021/11/20 03:13:25;;;;;;;2.65;2.08;;;12.30;95.30;;;;;;5073196;28;20024;-76
2021/11/20 03:15:51;;;;;;;10.98;3.30;;;12.30;95.30;;;;;;5074314;28;20040;-76
2021/11/20 03:18:18;;;;;;;3.65;2.50;;;12.30;95.30;;;;;;5073507;28;20138;-76
2021/11/20 03:20:45;;;;;;;3.90;2.42;;;12.30;95.30;;;;;;5092332;28;20480;-76
2021/11/20 03:23:21;;;;;;;5.60;3.13;;;12.40;95.30;;;;;;5073056;28;20059;-77
2021/11/20 03:25:47;;;;;;;7.50;2.65;;;12.30;95.30;;;;;;5091534;28;20487;-76
2021/11/20 03:28:13;;;;;;;6.90;3.50;;;12.30;95.30;;;;;;5074319;28;20016;-77
2021/11/20 03:30:40;;;;;;;11.05;3.17;;;12.30;95.40;;;;;;5090671;28;20083;-77
2021/11/20 03:33:07;;;;;;;6.80;3.35;;;12.40;95.40;;;;;;5085283;28;20107;-77
2021/11/20 03:35:33;;;;;;;9.55;2.88;;;12.40;95.40;;;;;;5067732;28;20417;-77
2021/11/20 03:38:11;;;;;;;10.02;2.55;;;12.40;95.40;;;;;;5078692;28;20106;-76
2021/11/20 03:40:37;;;;;;;4.30;2.72;;;12.40;95.40;;;;;;5083802;28;20036;-77
2021/11/20 03:43:04;;;;;;;5.88;3.25;;;12.40;95.40;;;;;;5072605;28;20475;-77
2021/11/20 03:45:33;;;;;;;7.35;2.40;;;12.40;95.40;;;;;;5080582;28;20379;-77
2021/11/20 03:48:03;;;;;;;10.27;3.70;;;12.40;95.30;;;;;;5073843;28;20139;-77
2021/11/20 03:50:30;;;;;;;4.80;3.17;;;12.50;95.20;;;;;;5072663;28;20479;-76
2021/11/20 03:52:56;;;;;;;4.57;2.63;;;12.50;95.10;;;;;;5096269;28;20016;-77
2021/11/20 03:55:29;;;;;;;9.02;3.92;;;12.60;95.10;;;;;;5091533;28;20502;-78
2021/11/20 03:57:56;;;;;;;14.35;5.15;;;12.60;95.00;;;;;;5062564;28;20073;-77
2021/11/20 04:00:25;;;;;;;13.40;4.75;;;12.60;95.00;;;;;;5074203;28;20040;-76
2021/11/20 04:02:52;;;;;;;2.63;1.65;;;12.60;94.90;;;;;;5074871;28;20056;-76
2021/11/20 04:05:20;;;;;;;6.78;3.15;;;12.60;94.90;;;;;;5090249;28;20103;-77
2021/11/20 04:07:47;;;;;;;6.75;2.53;;;12.60;94.80;;;;;;5073798;28;20024;-76
2021/11/20 04:10:13;;;;;;;7.05;2.38;;;12.60;94.80;;;;;;5074401;28;20024;-77
2021/11/20 04:12:40;;;;;;;5.28;2.03;;;12.60;94.90;;;;;;5072377;28;20028;-77
2021/11/20 04:15:10;;;;;;;7.18;3.17;;;12.60;94.90;;;;;;5091649;28;20036;-76
2021/11/20 04:17:39;;;;;;;3.50;1.65;;;12.60;94.90;;;;;;5075198;28;20116;-77
2021/11/20 04:20:09;;;;;;;3.72;2.55;;;12.60;95.00;;;;;;5062189;28;20140;-77
2021/11/20 04:22:37;;;;;;;7.53;2.60;;;12.50;95.00;;;;;;5056598;28;20037;-76
2021/11/20 04:25:05;;;;;;;8.30;3.50;;;12.60;95.00;;;;;;5057079;28;20044;-76
2021/11/20 04:27:46;;;;;;;5.63;3.10;;;12.50;95.10;;;;;;5050701;28;20025;-77
2021/11/20 04:30:22;;;;;;;2.58;1.65;;;12.60;95.10;;;;;;5049301;28;20033;-77
2021/11/20 04:32:49;;;;;;;5.90;2.55;;;12.50;95.20;;;;;;5048869;28;20071;-76
2021/11/20 04:35:17;;;;;;;7.93;2.60;;;12.50;95.20;;;;;;5049327;28;20033;-76
2021/11/20 04:37:44;;;;;;;6.40;2.33;;;12.50;95.30;;;;;;5036143;28;20040;-77
2021/11/20 04:40:10;;;;;;;7.07;2.53;;;12.50;95.30;;;;;;5049733;28;20035;-76
2021/11/20 04:42:40;;;;;;;8.52;3.92;;;12.50;95.30;;;;;;5043909;28;20117;-76
2021/11/20 04:45:09;;;;;;;5.72;3.00;;;12.50;95.40;;;;;;5055923;28;20056;-77
2021/11/20 04:47:35;;;;;;;6.30;3.20;;;12.50;95.40;;;;;;5055221;28;20024;-77
2021/11/20 04:50:02;;;;;;;7.70;4.07;;;12.50;95.50;;;;;;5064299;28;20412;-77
2021/11/20 04:52:30;;;;;;;9.23;3.95;;;12.50;95.50;;;;;;5061092;28;20472;-76
2021/11/20 04:54:56;;;;;;;7.88;4.10;;;12.40;95.60;;;;;;5047762;28;20107;-76
2021/11/20 04:57:22;;;;;;;6.22;3.30;;;12.50;95.60;;;;;;5049528;28;20435;-76
2021/11/20 04:59:47;;;;;;;10.05;4.70;;;12.50;95.60;;;;;;5048054;28;20047;-76
2021/11/20 05:02:14;;;;;;;10.35;4.80;;;12.50;95.60;;;;;;5039852;28;20072;-76
2021/11/20 05:04:40;;;;;;;9.60;3.92;;;12.50;95.70;;;;;;5042856;28;20033;-77
2021/11/20 05:07:06;;;;;;;4.25;2.67;;;12.50;95.70;;;;;;5043658;28;20116;-78
2021/11/20 05:09:32;;;;;;;2.85;2.00;;;12.50;95.80;;;;;;5041731;28;20045;-77
2021/11/20 05:11:59;;;;;;;9.23;4.43;;;12.50;95.80;;;;;;5048341;28;20068;-76
2021/11/20 05:14:26;;;;;;;9.93;3.63;;;12.50;95.90;;;;;;5049085;28;20025;-76
2021/11/20 05:16:53;;;;;;;5.22;2.75;;;12.50;95.90;;;;;;5048766;28;20358;-77
2021/11/20 05:19:19;;;;;;;8.18;3.60;;;12.50;95.90;;;;;;5065494;28;20052;-76
2021/11/20 05:21:46;;;;;;;15.70;4.90;;;12.50;95.90;;;;;;5064884;28;20031;-76
2021/11/20 05:24:15;;;;;;;7.88;3.20;;;12.50;96.00;;;;;;5050857;28;20058;-76
2021/11/20 05:26:44;;;;;;;9.02;3.53;;;12.50;96.00;;;;;;5053380;28;20036;-76
2021/11/20 05:29:24;;;;;;;8.52;4.57;;;12.50;96.00;;;;;;5063780;28;20029;-77
2021/11/20 05:31:55;;;;;;;8.90;4.85;;;12.50;96.00;;;;;;5050223;28;20072;-77
2021/11/20 05:34:21;;;;;;;8.35;4.80;;;12.50;96.10;;;;;;5051902;28;20044;-77
2021/11/20 05:36:47;;;;;;;7.03;3.97;;;12.50;96.10;;;;;;5053002;28;20035;-77
2021/11/20 05:39:16;;;;;;;4.25;2.80;;;12.50;96.20;;;;;;5058988;28;20041;-76
2021/11/20 05:41:44;;;;;;;12.02;4.70;;;12.50;96.20;;;;;;5054254;28;20036;-76
2021/11/20 05:44:12;;;;;;;9.13;4.78;;;12.50;96.20;;;;;;5056329;28;20025;-77
2021/11/20 05:46:58;;;;;;;7.10;4.17;;;12.50;96.20;;;;;;5052387;28;20029;-77
2021/11/20 05:49:29;;;;;;;6.68;2.92;;;12.50;96.20;;;;;;5061985;28;20021;-79
2021/11/20 05:51:55;;;;;;;5.38;3.25;;;12.50;96.20;;;;;;5047364;28;20032;-75
2021/11/20 05:54:21;;;;;;;4.13;3.20;;;12.50;96.20;;;;;;5048864;28;20120;-76
2021/11/20 05:56:53;;;;;;;5.00;2.83;;;12.50;96.20;;;;;;5058859;28;20059;-75
2021/11/20 05:59:19;;;;;;;4.50;3.22;;;12.60;96.20;;;;;;5065999;28;20036;-75
2021/11/20 06:01:45;;;;;;;9.40;4.22;;;12.60;96.20;;;;;;5051679;28;20104;-75
2021/11/20 06:04:11;;;;;;;7.35;4.35;;;12.60;96.20;;;;;;5052520;28;20036;-77
2021/11/20 06:06:37;;;;;;;6.43;3.28;;;12.60;96.10;;;;;;5048209;28;20036;-76
2021/11/20 06:09:04;;;;;;;7.97;3.83;;;12.60;96.20;;;;;;5039124;28;20432;-77
2021/11/20 06:11:32;;;;;;;7.18;3.53;;;12.60;96.20;;;;;;5043056;28;20029;-76
2021/11/20 06:13:58;;;;;;;9.63;4.75;;;12.60;96.20;;;;;;5037864;28;20017;-76
2021/11/20 06:16:33;;;;;;;6.22;3.42;;;12.60;96.20;;;;;;5034869;28;20033;-76
2021/11/20 06:18:59;;;;;;;8.80;4.47;;;12.60;96.20;;;;;;5042270;28;20401;-76
2021/11/20 06:21:25;;;;;;;16.45;6.30;;;12.60;96.20;;;;;;5051946;28;20075;-76
2021/11/20 06:23:50;;;;;;;6.70;4.30;;;12.60;96.20;;;;;;5051377;28;20025;-76
2021/11/20 06:26:17;;;;;;;6.55;3.55;;;12.60;96.20;;;;;;5051169;28;20480;-75
2021/11/20 06:28:45;;;;;;;7.05;3.20;;;12.60;96.20;;;;;;5051007;28;20542;-76
2021/11/20 06:31:17;;;;;;;11.63;5.50;;;12.60;96.10;;;;;;5051580;28;20498;-76
2021/11/20 06:33:49;;;;;;;9.68;3.78;;;12.60;96.10;;;;;;5053416;28;20131;-76
2021/11/20 06:36:40;;;;;;;9.52;4.75;;;12.60;96.10;;;;;;5051400;28;20384;-76
2021/11/20 06:39:15;;;;;;;4.70;2.53;;;12.60;96.00;;;;;;5050697;28;20037;-75
2021/11/20 06:41:41;;;;;;;16.02;4.40;;;12.70;96.00;;;;;;5052739;28;20170;-75
2021/11/20 06:44:07;;;;;;;7.65;4.00;;;12.70;96.00;;;;;;5055123;28;20384;-75
2021/11/20 06:46:33;;;;;;;8.65;3.33;;;12.70;96.00;;;;;;5050742;28;20033;-75
2021/11/20 06:49:02;;;;;;;4.63;2.88;;;12.70;96.00;;;;;;5049266;28;20017;-76
2021/11/20 06:51:31;;;;;;;7.90;4.10;;;12.70;96.00;;;;;;5053241;28;20039;-76
2021/11/20 06:54:35;;;;;;;;;;;12.70;96.00;;;;;;5048718;28;20048;-76
2021/11/20 06:57:47;;;;;;;5.20;3.13;;;12.70;95.90;;;;;;5045037;28;20449;-76
2021/11/20 07:00:57;;;;;;;9.43;5.28;;;12.70;95.80;;;;;;4993435;28;20093;-76
2021/11/20 07:03:48;;;;;;;10.88;4.78;;;12.70;95.90;;;;;;4978352;28;20058;-76
2021/11/20 07:06:21;;;;;;;8.40;4.45;;;12.60;95.90;;;;;;5030176;28;20123;-76
2021/11/20 07:08:50;;;;;;;12.35;5.28;;;12.60;95.90;;;;;;5049869;28;20059;-76
2021/11/20 07:11:19;;;;;;;9.98;4.22;;;12.70;95.90;;;;;;5052952;28;20040;-76
2021/11/20 07:13:45;;;;;;;6.95;4.03;;;12.70;95.90;;;;;;5052592;28;20021;-76
2021/11/20 07:16:12;;;;;;;4.03;3.05;;;12.70;95.90;;;;;;5050770;28;20033;-70
2021/11/20 07:18:41;;;;;;;7.50;3.67;;;12.70;95.80;;;;;;5047488;28;20041;-76
2021/11/20 07:21:30;;;;;;;7.00;3.85;;;12.70;95.80;;;;;;5054475;28;20427;-70
2021/11/20 07:24:06;;;;;;;3.55;2.50;;;12.80;95.80;;;;;;5045669;28;20033;-75
2021/11/20 07:26:33;;;;;;;17.38;5.82;;;12.70;95.80;;;;;;5054045;28;20116;-75
2021/11/20 07:28:59;;;;;;;5.07;3.47;;;12.80;95.70;;;;;;5043983;28;20041;-75
2021/11/20 07:31:27;;;;;;;13.63;3.72;;;12.80;95.70;;;;;;5058055;28;20484;-75
2021/11/20 07:33:53;;;;;;;10.95;5.05;;;12.80;95.60;;;;;;5049334;28;20030;-75
2021/11/20 07:36:19;;;;;;;16.10;5.55;;;12.90;95.60;;;;;;5041358;28;20033;-75
2021/11/20 07:38:50;;;;;;;11.15;5.80;;;12.90;95.60;;;;;;5051161;28;20032;-75
2021/11/20 07:41:16;;;;;;;11.65;4.50;;;12.90;95.50;;;;;;5045153;28;20533;-76
2021/11/20 07:43:42;;;;;;;5.40;3.58;;;12.90;95.50;;;;;;5041911;28;20030;-76
2021/11/20 07:46:25;;;;;;;4.53;2.65;;;12.90;95.50;;;;;;5041973;28;20167;-78
2021/11/20 07:49:02;;;;;;;3.63;2.67;;;12.90;95.40;;;;;;5032407;28;20025;-76
2021/11/20 07:51:34;;;;;;;8.70;5.15;;;13.00;95.40;;;;;;5030296;28;20033;-76
2021/11/20 07:54:06;;;;;;;7.35;4.15;;;13.00;95.40;;;;;;5034668;28;20143;-76
2021/11/20 07:56:41;;;;;;;10.43;5.28;;;13.00;95.40;;;;;;5028001;28;20028;-76
2021/11/20 07:59:15;;;;;;;7.28;3.20;;;13.00;95.40;;;;;;5030496;28;20124;-76
2021/11/20 08:01:42;;;;;;;7.88;4.40;;;13.00;95.40;;;;;;5049686;28;20028;-76
2021/11/20 08:04:11;;;;;;;4.72;3.45;;;13.00;95.30;;;;;;5038499;28;20032;-76
2021/11/20 08:06:46;;;;;;;5.20;3.22;;;13.00;95.30;;;;;;5029211;28;20064;-76
2021/11/20 08:09:21;;;;;;;4.63;2.78;;;13.00;95.30;;;;;;5037259;28;20039;-76
2021/11/20 08:11:56;;;;;;;5.78;3.67;;;13.00;95.40;;;;;;5031788;28;20040;-76
2021/11/20 08:14:23;;;;;;;6.47;3.35;;;13.00;95.50;;;;;;5036969;28;20032;-77
2021/11/20 08:17:18;;;;;;;5.30;3.08;;;13.00;95.50;;;;;;4976818;28;20062;-76
2021/11/20 08:19:57;;;;;;;6.70;3.92;;;12.90;95.50;;;;;;5043097;28;20143;-76
2021/11/20 08:22:52;;;;;;;4.80;2.70;;;13.00;95.60;;;;;;5021582;28;20031;-76
2021/11/20 08:25:22;;;;;;;4.53;3.53;;;12.90;95.60;;;;;;5046516;28;20380;-76
2021/11/20 08:27:49;;;;;;;7.07;4.68;;;12.90;95.60;;;;;;5046923;28;20017;-76
2021/11/20 08:30:23;;;;;;;7.57;4.05;;;12.90;95.60;;;;;;5048516;28;20048;-76
2021/11/20 08:32:55;;;;;;;3.83;2.60;;;12.90;95.60;;;;;;5048846;28;20132;-76
2021/11/20 08:35:39;;;;;;;6.47;3.80;;;12.90;95.60;;;;;;5048365;28;20051;-76
2021/11/20 08:38:34;;;;;;;6.10;3.20;;;12.90;95.60;;;;;;5035506;28;20044;-75
2021/11/20 08:41:06;;;;;;;8.25;4.68;;;12.90;95.60;;;;;;5044748;28;20029;-76
2021/11/20 08:43:32;;;;;;;6.65;3.83;;;12.90;95.60;;;;;;5046746;28;20024;-76
2021/11/20 08:46:06;;;;;;;5.23;3.20;;;12.90;95.60;;;;;;5050961;28;20116;-76
2021/11/20 08:48:33;;;;;;;4.43;3.35;;;12.90;95.60;;;;;;5046167;28;20037;-76
2021/11/20 08:51:05;;;;;;;4.00;2.65;;;12.90;95.60;;;;;;5043783;28;20593;-76
2021/11/20 08:53:31;;;;;;;4.68;2.83;;;12.90;95.60;;;;;;5050843;28;20025;-75
2021/11/20 08:55:59;;;;;;;4.25;2.65;;;12.90;95.60;;;;;;5050011;28;20485;-77
2021/11/20 08:58:35;;;;;;;4.55;2.47;;;13.00;95.60;;;;;;5048655;28;20402;-76
2021/11/20 09:01:13;;;;;;;6.88;4.00;;;13.00;95.50;;;;;;5049031;28;20072;-77
2021/11/20 09:03:57;;;;;;;;;;;13.00;95.50;;;;;;5052648;28;20036;-77
2021/11/20 09:06:59;;;;;;;6.00;3.53;;;13.00;95.70;;;;;;5050384;28;19908;-76
2021/11/20 09:09:43;;;;;;;7.43;4.53;;;12.90;95.40;;;;;;5048449;28;20045;-74
2021/11/20 09:12:16;;;;;;;13.50;6.20;;;12.90;95.50;;;;;;5051171;28;20499;-74
2021/11/20 09:14:49;;;;;;;8.55;5.43;;;12.90;95.60;;;;;;5054234;28;20510;-75
2021/11/20 09:17:18;;;;;;;8.13;6.03;;;12.90;95.60;;;;;;5046249;28;20417;-81
2021/11/20 09:19:45;;;;;;;10.15;5.70;;;12.90;95.60;;;;;;5048508;28;20045;-79
2021/11/20 09:22:13;;;;;;;5.97;3.95;;;12.90;95.60;;;;;;5049607;28;20031;-74
2021/11/20 09:25:16;;;;;;;8.02;1.40;;;12.90;95.60;;;;;;5040363;28;20090;-71
2021/11/20 09:27:47;;;;;;;8.75;5.00;;;12.90;95.60;;;;;;5052107;28;20095;-72
2021/11/20 09:30:27;;;;;;;7.15;3.97;;;13.00;95.60;;;;;;5052418;28;20035;-68
2021/11/20 09:32:53;;;;;;;29.40;5.07;;;13.00;95.50;;;;;;5046022;28;20048;-74
2021/11/20 09:35:33;;;;;;;4.07;3.08;;;12.90;95.50;;;;;;5049807;28;20052;-73
2021/11/20 09:38:04;;;;;;;9.80;4.93;;;13.00;95.50;;;;;;5048733;28;20025;-74
2021/11/20 09:40:34;;;;;;;9.60;5.10;;;13.00;95.50;;;;;;5049167;28;20037;-74
2021/11/20 09:43:05;;;;;;;6.80;4.38;;;13.00;95.50;;;;;;5048713;28;20108;-74
2021/11/20 09:45:35;;;;;;;9.43;5.45;;;13.00;95.50;;;;;;5052957;28;20056;-79
2021/11/20 09:48:18;;;;;;;8.05;4.32;;;13.00;95.50;;;;;;5051207;28;20053;-75
2021/11/20 09:50:57;;;;;;;8.52;4.18;;;13.00;95.50;;;;;;5053257;28;20021;-75
2021/11/20 09:53:24;;;;;;;3.50;2.25;;;13.00;95.40;;;;;;5069198;28;20090;-73
2021/11/20 09:56:03;;;;;;;5.07;3.72;;;13.00;95.60;;;;;;5052090;28;20488;-74
2021/11/20 09:58:32;;;;;;;9.20;5.68;;;13.00;95.40;;;;;;5054554;28;20116;-75
2021/11/20 10:01:16;;;;;;;12.55;6.60;;;13.00;95.40;;;;;;5052596;28;20446;-76
2021/11/20 10:04:05;;;;;;;10.82;4.82;;;13.00;95.30;;;;;;5052731;28;20109;-75
2021/11/20 10:06:34;;;;;;;6.45;3.60;;;13.00;95.30;;;;;;5042586;28;20029;-76
2021/11/20 10:09:19;;;;;;;8.45;4.15;;;13.00;95.30;;;;;;5056173;28;20043;-75
2021/11/20 10:12:11;;;;;;;8.15;3.90;;;13.00;95.30;;;;;;5053698;28;20044;-75
2021/11/20 10:14:43;;;;;;;10.05;6.32;;;13.10;95.30;;;;;;5050384;28;20710;-75
2021/11/20 10:17:14;;;;;;;8.90;3.45;;;13.10;95.30;;;;;;5055565;28;20476;-75
2021/11/20 10:19:46;;;;;;;13.70;6.72;;;13.10;95.30;;;;;;5082040;28;20051;-75
2021/11/20 10:22:26;;;;;;;7.53;5.05;;;13.10;95.30;;;;;;5090962;28;20490;-76
2021/11/20 10:25:10;;;;;;;14.20;8.10;;;13.10;95.30;;;;;;5090214;28;20074;-74
2021/11/20 10:27:56;;;;;;;4.25;3.15;;;13.10;95.30;;;;;;5089176;28;20064;-75
2021/11/20 10:30:27;;;;;;;9.05;5.35;;;13.10;95.20;;;;;;5095835;28;20154;-75
2021/11/20 10:33:17;;;;;;;11.40;5.82;;;13.10;95.20;;;;;;5092008;28;20418;-75
2021/11/20 10:35:49;;;;;;;9.30;6.53;;;13.10;95.30;;;;;;5092803;28;20024;-75
2021/11/20 10:38:30;;;;;;;9.60;6.30;;;13.10;95.30;;;;;;5092962;28;20055;-75
2021/11/20 10:41:01;;;;;;;7.90;5.03;;;13.10;95.30;;;;;;5093889;28;20047;-75
2021/11/20 10:43:39;;;;;;;5.68;3.53;;;13.00;95.30;;;;;;5091642;28;20042;-73
2021/11/20 10:46:34;;;;;;;13.50;7.50;;;13.00;95.30;;;;;;5090701;28;20150;-73
2021/11/20 10:49:19;;;;;;;10.07;6.22;;;13.10;95.30;;;;;;5093779;28;20111;-75
2021/11/20 10:52:02;;;;;;;11.35;6.20;;;13.00;95.30;;;;;;5099504;28;20028;-74
2021/11/20 10:54:59;;;;;;;17.98;7.07;;;13.10;95.40;;;;;;5089268;28;20031;-75
2021/11/20 10:57:51;;;;;;;15.32;7.43;;;13.00;95.30;;;;;;5093790;28;20468;-72
2021/11/20 11:00:23;;;;;;;11.25;7.03;;;13.00;95.30;;;;;;5085117;28;20040;-75
2021/11/20 11:03:11;;;;;;;13.85;7.90;;;13.00;95.30;;;;;;5092145;28;20028;-75
2021/11/20 11:06:03;;;;;;;10.38;5.30;;;13.00;95.30;;;;;;5086029;28;20020;-73
2021/11/20 11:08:46;;;;;;;14.67;6.90;;;13.00;95.30;;;;;;5058533;28;20043;-74
2021/11/20 11:11:24;;;;;;;14.57;8.43;;;13.00;95.20;;;;;;5090019;28;20282;-72
2021/11/20 11:14:02;;;;;;;9.00;5.78;;;13.00;95.30;;;;;;5090514;28;20024;-74
2021/11/20 11:16:41;;;;;;;9.70;5.97;;;13.00;95.30;;;;;;5092507;28;20133;-73
2021/11/20 11:19:21;;;;;;;9.20;4.97;;;13.00;95.30;;;;;;5093685;28;20048;-68
2021/11/20 11:22:23;;;;;;;11.48;5.03;;;13.00;95.30;;;;;;5092775;28;20035;-73
2021/11/20 11:25:10;;;;;;;14.23;8.30;;;13.00;95.30;;;;;;5096507;28;20375;-80
2021/11/20 11:28:06;;;;;;;12.98;6.15;;;13.00;95.30;;;;;;5093444;28;20069;-74
2021/11/20 11:30:54;;;;;;;7.03;4.65;;;13.00;95.30;;;;;;5086892;28;20020;-74
2021/11/20 11:33:20;;;;;;;13.88;5.65;;;13.00;95.30;;;;;;5092931;28;20040;-73
2021/11/20 11:35:55;;;;;;;11.82;6.72;;;13.00;95.30;;;;;;5094740;28;20379;-74
2021/11/20 11:38:30;;;;;;;15.35;8.68;;;13.00;95.30;;;;;;5095310;28;20043;-76
2021/11/20 11:41:00;;;;;;;6.25;3.97;;;13.10;95.30;;;;;;5081807;28;20036;-75
2021/11/20 11:43:35;;;;;;;14.52;7.22;;;13.10;95.20;;;;;;5091036;28;21474;-75
2021/11/20 11:46:21;;;;;;;11.07;6.38;;;13.10;95.20;;;;;;5091997;28;20051;-75
2021/11/20 11:48:55;;;;;;;15.40;8.27;;;13.10;95.10;;;;;;5094416;28;20105;-76
2021/11/20 11:51:43;;;;;;;13.10;6.50;;;13.10;95.10;;;;;;5095810;28;20125;-78
2021/11/20 11:54:29;;;;;;;10.93;5.22;;;13.10;95.10;;;;;;5095401;28;20532;-72
2021/11/20 11:56:58;;;;;;;12.68;7.55;;;13.00;95.10;;;;;;5090542;28;20020;-71
2021/11/20 11:59:36;;;;;;;11.40;5.50;;;13.10;95.40;;;;;;5093123;28;20487;-76
2021/11/20 12:02:30;;;;;;;12.70;7.22;;;13.00;95.10;;;;;;5089225;28;20081;-80
2021/11/20 12:05:19;;;;;;;12.93;7.10;;;13.10;95.20;;;;;;5093248;28;20032;-78
2021/11/20 12:07:45;;;;;;;14.27;6.78;;;13.10;95.20;;;;;;5084939;28;20020;-79
2021/11/20 12:10:22;;;;;;;18.33;10.32;;;13.00;95.20;;;;;;5087500;28;20384;-78
2021/11/20 12:13:04;;;;;;;9.18;5.13;;;13.00;95.20;;;;;;5089136;28;20028;-74
2021/11/20 12:15:46;;;;;;;13.68;7.13;;;13.00;95.20;;;;;;5088748;28;20074;-72
2021/11/20 12:18:23;;;;;;;11.38;6.80;;;13.00;95.20;;;;;;5088401;28;20044;-72
2021/11/20 12:20:56;;;;;;;15.43;7.43;;;13.00;95.20;;;;;;5089692;28;20040;-72
2021/11/20 12:23:38;;;;;;;15.18;8.15;;;13.10;95.20;;;;;;5078993;28;20131;-79
2021/11/20 12:26:09;;;;;;;9.40;5.40;;;13.10;95.20;;;;;;5088691;28;20493;-76
2021/11/20 12:29:20;;;;;;;14.35;8.18;;;13.10;95.10;;;;;;5090278;28;20024;-75
2021/11/20 12:32:23;;;;;;;22.90;8.95;;;13.10;95.10;;;;;;5077424;28;20036;-78
2021/11/20 12:35:26;;;;;;;17.98;7.18;;;13.10;95.10;;;;;;5088865;28;20115;-75
2021/11/20 12:38:10;;;;;;;17.05;8.00;;;13.10;95.10;;;;;;5049981;28;20044;-74
2021/11/20 12:41:08;;;;;;;10.70;5.50;;;13.10;95.10;;;;;;5079800;28;20047;-80
2021/11/20 12:43:52;;;;;;;12.13;6.38;;;13.10;95.10;;;;;;5087022;28;20515;-74
2021/11/20 12:46:36;;;;;;;13.23;8.02;;;13.10;95.10;;;;;;5086543;28;20028;-74
2021/11/20 12:49:42;;;;;;;17.05;7.10;;;13.10;95.20;;;;;;5086656;28;20425;-75
2021/11/20 12:52:22;;;;;;;9.27;5.35;;;13.10;95.10;;;;;;5087365;28;20032;-75
2021/11/20 12:55:07;;;;;;;7.97;4.40;;;13.10;95.10;;;;;;5087940;28;20031;-76
2021/11/20 12:57:39;;;;;;;15.05;8.85;;;13.10;95.20;;;;;;5086395;28;20020;-76
2021/11/20 13:00:08;;;;;;;14.82;8.30;;;13.00;95.10;;;;;;5087560;28;20048;-76
2021/11/20 13:02:43;;;;;;;15.50;9.02;;;13.00;95.10;;;;;;5088362;28;20031;-75
2021/11/20 13:05:18;;;;;;;11.15;6.88;;;13.00;95.10;;;;;;5087310;28;20042;-75
2021/11/20 13:08:27;;;;;;;16.55;9.80;;;13.00;95.10;;;;;;5078197;28;20107;-76
2021/11/20 13:11:22;;;;;;;12.73;7.45;;;13.00;95.10;;;;;;5097084;28;20031;-77
2021/11/20 13:14:06;;;;;;;15.85;9.13;;;13.00;95.10;;;;;;5094737;28;20118;-75
2021/11/20 13:16:57;;;;;;;15.07;9.10;;;13.00;95.10;;;;;;5096267;28;20051;-78
2021/11/20 13:19:48;;;;;;;14.80;8.70;;;13.00;95.10;;;;;;5092094;28;20048;-82
2021/11/20 13:22:25;;;;;;;13.38;7.03;;;13.00;95.10;;;;;;5080618;28;20391;-70